Nearby METAR Reports

 

KBED - Bedford, Massachusetts, USA
Distance from station: W 5mi, 9km
Updated: Sun, 17-Dec-2017 5:56pm EST
Clear
Clear
 Wind from calm
Wind: Calm
Temperature: 25°F , -4°C
Dew Point: 3°F , -16°C
Humidity: 39%
Barometer: 1024 hPa
Clouds: Clear
Visibility: 10 miles , 16 km
2017/12/17 22:56 KBED 172256Z 00000KT 10SM CLR M04/M16 A3024 RMK AO2 SLP259 T10441156
KBOS - Boston, Massachusetts, USA
Distance from station: SE 11mi, 18km
Updated: Sun, 17-Dec-2017 4:54pm EST
NOT Current
Overcast
Overcast
 Wind from NW
Wind: NW 9 mph , 15 km/h
Temperature: 28°F , -2°C
Wind Chill: 19°F , -7°C
Dew Point: 1°F , -17°C
Humidity: 31%
Barometer: 1024.4 hPa
Clouds: Overcast
Visibility: 10 miles , 16 km
Cloud details: Partly cloudy 14000 ft
Mostly cloudy 15000 ft
Overcast 22000 ft
2017/12/17 21:54 KBOS 172154Z 32008KT 300V010 10SM SCT140 BKN150 OVC220 M02/M17 A3025 RMK AO2 SLP244 T10171167
 
KBVY - Beverly, Massachusetts, USA
Distance from station: ENE 17mi, 27km
Updated: Sun, 17-Dec-2017 5:53pm EST
Mostly cloudy
Mostly cloudy
 Wind from WNW
Wind: WNW 6 mph , 9 km/h
Temperature: 23°F , -5°C
Wind Chill: 16°F , -9°C
Dew Point: 3°F , -16°C
Humidity: 42%
Barometer: 1024 hPa
Clouds: Mostly cloudy
Visibility: 10 miles , 16 km
Cloud details: Mostly cloudy 15000 ft
Mostly cloudy 25000 ft
2017/12/17 22:53 KBVY 172253Z 30005KT 10SM BKN150 BKN250 M05/M16 A3024 RMK AO2 SLP239 T10501156
KMQE - East Milton, Massachusetts, USA
Distance from station: SSE 17mi, 28km
Updated: Sun, 17-Dec-2017 5:56pm EST

 Wind from NW
Wind: NW 7 mph , 11 km/h
Temperature: 23°F , -5°C
Wind Chill: 15°F , -9°C
Dew Point: 14°F , -10°C
Humidity: 68%
Barometer: 1022.7 hPa
2017/12/17 22:56 KMQE 172256Z AUTO 31006KT M05/M10 A3020 RMK AO1 SLP249 T10501100
 
KLWM - Lawrence, Massachusetts, USA
Distance from station: N 18mi, 29km
Updated: Sun, 17-Dec-2017 5:54pm EST
Clear
Clear
 Wind from NW
Wind: NW 3 mph , 6 km/h
Temperature: 27°F , -3°C
Dew Point: 5°F , -15°C
Humidity: 39%
Barometer: 1024.7 hPa
Clouds: Clear
Visibility: 10 miles , 16 km
2017/12/17 22:54 KLWM 172254Z 32003KT 10SM CLR M03/M15 A3026 RMK AO2 SLP251 T10331150
KOWD - Norwood, Massachusetts, USA
Distance from station: S 19mi, 31km
Updated: Sun, 17-Dec-2017 5:53pm EST
Clear
Clear
 Wind from calm
Wind: Calm
Temperature: 21°F , -6°C
Dew Point: 12°F , -11°C
Humidity: 68%
Barometer: 1024.4 hPa
Clouds: Clear
Visibility: 10 miles , 16 km
2017/12/17 22:53 KOWD 172253Z 00000KT 10SM CLR M06/M11 A3025 RMK AO2 SLP245 T10561111
 
KASH - Nashua/Boire Fld, New Hampshire, USA
Distance from station: NW 28mi, 45km
Updated: Sun, 17-Dec-2017 5:56pm EST
Clear
Clear
 Wind from calm
Wind: Calm
Temperature: 19°F , -7°C
Dew Point: 9°F , -13°C
Humidity: 63%
Barometer: 1024.4 hPa
Clouds: Clear
Visibility: 10 miles , 16 km
2017/12/17 22:56 KASH 172256Z 00000KT 10SM CLR M07/M13 A3025 RMK AO2 SLP257 T10721133
KFIT - Fitchburg, Massachusetts, USA
Distance from station: WNW 29mi, 47km
Updated: Sun, 17-Dec-2017 5:52pm EST
Clear
Clear
 Wind from NNW
Wind: NNW 3 mph , 6 km/h
Temperature: 25°F , -4°C
Dew Point: 9°F , -13°C
Humidity: 50%
Barometer: 1024 hPa
Clouds: Clear
Visibility: 10 miles , 16 km
2017/12/17 22:52 KFIT 172252Z AUTO 34003KT 10SM CLR M04/M13 A3024 RMK AO2 SLP247 T10391133
 
KMHT - Manchester, New Hampshire, USA
Distance from station: NNW 35mi, 56km
Updated: Sun, 17-Dec-2017 5:53pm EST
Overcast
Overcast
 Wind from NNW
Wind: NNW 5 mph , 7 km/h
Temperature: 21°F , -6°C
Wind Chill: 14°F , -10°C
Dew Point: 5°F , -15°C
Humidity: 49%
Barometer: 1024 hPa
Clouds: Overcast
Visibility: 10 miles , 16 km
Cloud details: Overcast 25000 ft
2017/12/17 22:53 KMHT 172253Z 34004KT 10SM OVC250 M06/M15 A3024 RMK AO2 SLP260 T10561150
KGHG - Marshfield, Massachusetts, USA
Distance from station: SE 37mi, 59km
Updated: Sun, 17-Dec-2017 6:15pm EST
Clear
Clear
 Wind from calm
Wind: Calm
Temperature: 25°F , -4°C
Dew Point: 7°F , -14°C
Humidity: 46%
Barometer: 1024.4 hPa
Clouds: Clear
Visibility: 10 miles , 16 km
2017/12/17 23:15 KGHG 172315Z AUTO 00000KT 10SM CLR M04/M14 A3025 RMK AO2
 
KORH - Worcester, Massachusetts, USA
Distance from station: WSW 37mi, 59km
Updated: Sun, 17-Dec-2017 5:54pm EST
Clear
Clear
 Wind from calm
Wind: Calm
Temperature: 23°F , -5°C
Dew Point: 1°F , -17°C
Humidity: 39%
Barometer: 1022.4 hPa
Clouds: Clear
Visibility: 10 miles , 16 km
2017/12/17 22:54 KORH 172254Z 00000KT 10SM CLR M05/M17 A3019 RMK AO2 SLP243 T10501172
KSFZ - Pawtucket, Rhode Island, USA
Distance from station: SSW 41mi, 65km
Updated: Sun, 17-Dec-2017 5:56pm EST
Clear
Clear
 Wind from W
Wind: W 5 mph , 7 km/h
Temperature: 25°F , -4°C
Wind Chill: 19°F , -7°C
Dew Point: 9°F , -13°C
Humidity: 50%
Barometer: 1023.7 hPa
Clouds: Clear
Visibility: 10 miles , 16 km
2017/12/17 22:56 KSFZ 172256Z AUTO 27004KT 10SM CLR M04/M13 A3023 RMK AO2 SLP188 T10441133 FZRANO
 
KTAN - Taunton, Massachusetts, USA
Distance from station: SSE 41mi, 66km
Updated: Sun, 17-Dec-2017 5:52pm EST
Clear
Clear
 Wind from calm
Wind: Calm
Temperature: 21°F , -6°C
Dew Point: 9°F , -13°C
Humidity: 58%
Barometer: 1024.4 hPa
Clouds: Clear
Visibility: 10 miles , 16 km
2017/12/17 22:52 KTAN 172252Z AUTO 00000KT 10SM CLR M06/M13 A3025 RMK AO2 SLP242 T10561128
KPYM - Plymouth, Massachusetts, USA
Distance from station: SSE 44mi, 71km
Updated: Sun, 17-Dec-2017 5:52pm EST
Clear
Clear
 Wind from W
Wind: W 3 mph , 6 km/h
Temperature: 27°F , -3°C
Dew Point: 5°F , -15°C
Humidity: 39%
Barometer: 1024.4 hPa
Clouds: Clear
Visibility: 10 miles , 16 km
2017/12/17 22:52 KPYM 172252Z AUTO 27003KT 10SM CLR M03/M15 A3025 RMK AO2 SLP246 T10331150
 
KPSM - Portsmouth/Pease, New Hampshire, USA
Distance from station: NNE 46mi, 74km
Updated: Sun, 17-Dec-2017 5:56pm EST
Mostly cloudy
Mostly cloudy
 Wind from WNW
Wind: WNW 7 mph , 11 km/h
Temperature: 21°F , -6°C
Wind Chill: 12°F , -11°C
Dew Point: 1°F , -17°C
Humidity: 42%
Barometer: 1023.7 hPa
Clouds: Mostly cloudy
Visibility: 10 miles , 16 km
Cloud details: Mostly cloudy 25000 ft
2017/12/17 22:56 KPSM 172256Z 29006KT 10SM BKN250 M06/M17 A3023 RMK AO2A SLP241 T10601174
KAFN - Jaffrey, New Hampshire, USA
Distance from station: WNW 47mi, 76km
Updated: Sun, 17-Dec-2017 5:52pm EST
Clear
Clear
 Wind from calm
Wind: Calm
Temperature: 16°F , -9°C
Dew Point: 7°F , -14°C
Humidity: 67%
Barometer: 1022 hPa
Clouds: Clear
Visibility: 10 miles , 16 km
2017/12/17 22:52 KAFN 172252Z AUTO 00000KT 10SM CLR M09/M14 A3018 RMK AO2 SLP251 T10891139